Time;durP1;ratioP1;P1;durP2;ratioP2;P2;SDS_P1;SDS_P2;PMS_P1;PMS_P2;Temp;Humidity;BMP_temperature;BMP_pressure;BME280_temperature;BME280_humidity;BME280_pressure;Samples;Min_cycle;Max_cycle;Signal;HPM_P1;HPM_P2
2023/05/21 00:00:44;;;;;;;7.57;6.83;;;20.20;80.10;;;;;;4976895;28;20781;-76
2023/05/21 00:03:12;;;;;;;7.70;6.87;;;20.20;80.10;;;;;;4977175;28;20438;-76
2023/05/21 00:05:43;;;;;;;8.10;7.30;;;20.20;80.10;;;;;;4993528;28;20865;-76
2023/05/21 00:08:10;;;;;;;7.30;6.60;;;20.20;80.10;;;;;;4993267;28;20509;-77
2023/05/21 00:10:36;;;;;;;7.60;6.80;;;20.10;80.00;;;;;;4961087;28;20430;-77
2023/05/21 00:13:07;;;;;;;7.63;6.90;;;20.10;80.10;;;;;;4993377;28;20436;-77
2023/05/21 00:15:35;;;;;;;7.40;6.70;;;20.10;80.10;;;;;;4994507;28;20428;-78
2023/05/21 00:18:02;;;;;;;10.03;7.40;;;20.10;80.20;;;;;;4977143;28;20577;-78
2023/05/21 00:20:36;;;;;;;7.43;6.63;;;20.10;80.20;;;;;;4961041;28;20426;-77
2023/05/21 00:23:04;;;;;;;8.10;7.30;;;20.10;80.30;;;;;;4992936;28;20500;-78
2023/05/21 00:25:32;;;;;;;7.90;7.07;;;20.10;80.30;;;;;;4993533;28;20997;-77
2023/05/21 00:28:01;;;;;;;7.53;6.77;;;20.10;80.40;;;;;;4960256;28;20555;-77
2023/05/21 00:30:32;;;;;;;7.63;6.87;;;20.10;80.40;;;;;;4977617;28;20456;-78
2023/05/21 00:33:01;;;;;;;7.80;7.10;;;20.10;80.50;;;;;;4992780;28;20432;-77
2023/05/21 00:35:34;;;;;;;7.20;6.50;;;20.10;80.50;;;;;;4977126;28;20952;-77
2023/05/21 00:38:01;;;;;;;7.50;6.80;;;20.10;80.50;;;;;;4993093;28;21027;-77
2023/05/21 00:40:32;;;;;;;8.37;7.50;;;20.00;80.40;;;;;;4976809;28;20569;-77
2023/05/21 00:43:00;;;;;;;6.77;6.10;;;20.00;80.50;;;;;;4976327;28;20815;-77
2023/05/21 00:45:26;;;;;;;8.17;7.37;;;20.00;80.50;;;;;;4976827;28;20432;-77
2023/05/21 00:48:01;;;;;;;8.20;7.40;;;20.00;80.60;;;;;;4992950;28;20984;-76
2023/05/21 00:50:29;;;;;;;7.93;7.13;;;20.00;80.60;;;;;;4976645;28;20443;-77
2023/05/21 00:53:03;;;;;;;8.50;7.03;;;20.00;80.70;;;;;;4976500;28;20550;-77
2023/05/21 00:55:32;;;;;;;8.23;7.30;;;20.00;80.70;;;;;;4976183;28;20507;-76
2023/05/21 00:58:03;;;;;;;7.23;6.63;;;19.90;80.60;;;;;;4992407;28;20922;-77
2023/05/21 01:00:33;;;;;;;7.60;6.43;;;20.00;80.80;;;;;;4993892;28;20465;-76
2023/05/21 01:03:03;;;;;;;7.70;7.00;;;19.90;80.70;;;;;;4994057;28;20540;-77
2023/05/21 01:05:31;;;;;;;7.70;7.00;;;19.90;80.80;;;;;;4992577;28;20424;-76
2023/05/21 01:08:00;;;;;;;7.00;6.37;;;19.90;80.80;;;;;;4976203;28;20477;-77
2023/05/21 01:10:29;;;;;;;7.23;6.53;;;19.90;80.90;;;;;;4976008;28;20443;-77
2023/05/21 01:12:57;;;;;;;7.77;7.00;;;19.90;81.00;;;;;;4976018;28;20484;-77
2023/05/21 01:15:24;;;;;;;8.63;6.60;;;19.90;81.00;;;;;;4992655;28;20885;-77
2023/05/21 01:17:54;;;;;;;7.33;6.63;;;19.90;81.00;;;;;;4976488;28;20439;-78
2023/05/21 01:20:23;;;;;;;7.83;7.03;;;19.90;81.00;;;;;;4992156;28;20861;-77
2023/05/21 01:22:52;;;;;;;8.17;7.07;;;19.90;81.00;;;;;;4968083;28;20968;-78
2023/05/21 01:25:23;;;;;;;7.77;6.97;;;19.80;81.00;;;;;;4973170;28;20405;-77
2023/05/21 01:27:50;;;;;;;7.77;7.07;;;19.90;81.10;;;;;;4972790;28;20679;-77
2023/05/21 01:30:18;;;;;;;7.43;6.67;;;19.80;81.00;;;;;;4972591;28;20420;-77
2023/05/21 01:32:59;;;;;;;8.50;7.20;;;19.80;81.00;;;;;;4956877;28;20478;-77
2023/05/21 01:35:41;;;;;;;7.50;6.80;;;19.80;81.00;;;;;;4973184;28;20466;-77
2023/05/21 01:38:23;;;;;;;7.00;5.87;;;19.80;81.10;;;;;;4972965;28;20481;-77
2023/05/21 01:41:02;;;;;;;7.50;6.70;;;19.80;81.20;;;;;;4959852;28;20985;-77
2023/05/21 01:43:35;;;;;;;7.27;6.40;;;19.70;81.00;;;;;;4944835;28;20454;-77
2023/05/21 01:46:07;;;;;;;8.20;7.50;;;19.80;81.20;;;;;;4977595;28;20461;-77
2023/05/21 01:48:34;;;;;;;6.40;5.80;;;19.70;81.10;;;;;;4976440;28;20415;-77
2023/05/21 01:51:03;;;;;;;7.07;5.30;;;19.70;81.10;;;;;;4976214;28;20819;-77
2023/05/21 01:53:32;;;;;;;6.53;5.90;;;19.70;81.20;;;;;;4990274;28;20513;-76
2023/05/21 01:56:03;;;;;;;7.63;6.83;;;19.70;81.10;;;;;;4995910;28;20451;-77
2023/05/21 01:58:29;;;;;;;7.00;6.30;;;19.70;81.20;;;;;;4979696;28;20425;-76
2023/05/21 02:00:58;;;;;;;6.53;5.93;;;19.70;81.30;;;;;;4979540;28;20627;-76
2023/05/21 02:03:29;;;;;;;8.63;7.13;;;19.70;81.30;;;;;;4979387;28;20518;-77
2023/05/21 02:05:56;;;;;;;7.50;6.10;;;19.70;81.30;;;;;;4978921;28;20492;-76
2023/05/21 02:08:26;;;;;;;6.23;5.63;;;19.70;81.30;;;;;;4979882;28;20430;-76
2023/05/21 02:10:53;;;;;;;6.60;5.90;;;19.60;81.30;;;;;;4979523;28;20497;-77
2023/05/21 02:13:28;;;;;;;6.43;5.80;;;19.60;81.30;;;;;;4995252;28;20435;-77
2023/05/21 02:15:54;;;;;;;6.40;5.80;;;19.60;81.30;;;;;;4995203;28;20408;-76
2023/05/21 02:18:25;;;;;;;6.20;5.60;;;19.60;81.40;;;;;;4963321;28;20429;-76
2023/05/21 02:20:57;;;;;;;6.90;6.13;;;19.60;81.40;;;;;;4995127;28;20511;-77
2023/05/21 02:23:26;;;;;;;7.53;6.63;;;19.60;81.50;;;;;;4995155;28;20463;-77
2023/05/21 02:25:56;;;;;;;7.10;5.67;;;19.60;81.50;;;;;;4979160;28;20533;-77
2023/05/21 02:28:25;;;;;;;6.53;5.73;;;19.50;81.40;;;;;;4995248;28;20414;-77
2023/05/21 02:30:56;;;;;;;7.47;6.77;;;19.60;81.50;;;;;;4978865;28;20436;-77
2023/05/21 02:33:24;;;;;;;6.20;5.57;;;19.60;81.50;;;;;;4962695;28;20460;-77
2023/05/21 02:35:53;;;;;;;6.50;5.90;;;19.50;81.40;;;;;;4979319;28;20525;-77
2023/05/21 02:38:21;;;;;;;6.20;5.50;;;19.50;81.50;;;;;;4994928;28;20412;-77
2023/05/21 02:40:52;;;;;;;6.17;5.30;;;19.50;81.50;;;;;;4979007;28;20426;-77
2023/05/21 02:43:21;;;;;;;7.70;6.33;;;19.50;81.60;;;;;;4978400;28;20425;-77
2023/05/21 02:45:47;;;;;;;6.80;6.10;;;19.50;81.70;;;;;;4994741;28;20435;-77
2023/05/21 02:48:18;;;;;;;6.00;5.40;;;19.50;81.70;;;;;;4978512;28;20509;-77
2023/05/21 02:50:46;;;;;;;6.03;5.43;;;19.50;81.70;;;;;;4994324;28;20410;-76
2023/05/21 02:53:15;;;;;;;6.13;5.43;;;19.40;81.60;;;;;;4978016;28;20559;-77
2023/05/21 02:55:43;;;;;;;5.90;5.40;;;19.40;81.60;;;;;;4978384;28;20925;-77
2023/05/21 02:58:12;;;;;;;6.20;5.60;;;19.50;81.80;;;;;;4962337;28;20779;-76
2023/05/21 03:00:38;;;;;;;6.27;5.67;;;19.40;81.60;;;;;;4978474;28;20473;-76
2023/05/21 03:03:04;;;;;;;6.87;6.03;;;19.50;81.80;;;;;;4978383;28;20441;-76
2023/05/21 03:05:30;;;;;;;7.10;5.60;;;19.40;81.70;;;;;;4993116;28;20441;-78
2023/05/21 03:07:56;;;;;;;5.77;5.20;;;19.40;81.80;;;;;;4994285;28;20555;-76
2023/05/21 03:10:24;;;;;;;5.90;5.40;;;19.40;81.80;;;;;;4978044;28;20501;-76
2023/05/21 03:12:52;;;;;;;7.00;5.80;;;19.40;81.90;;;;;;4993944;28;20461;-76
2023/05/21 03:15:22;;;;;;;5.30;4.90;;;19.40;81.90;;;;;;4994051;28;20417;-77
2023/05/21 03:17:52;;;;;;;6.03;5.43;;;19.40;81.90;;;;;;4977799;28;20444;-77
2023/05/21 03:20:18;;;;;;;4.97;4.47;;;19.40;82.00;;;;;;4978309;28;20944;-77
2023/05/21 03:22:48;;;;;;;5.50;5.00;;;19.40;82.10;;;;;;4962219;28;20434;-77
2023/05/21 03:25:16;;;;;;;5.90;4.97;;;19.40;82.10;;;;;;4994114;28;20473;-77
2023/05/21 03:27:45;;;;;;;4.40;4.00;;;19.30;82.00;;;;;;4978252;28;20545;-77
2023/05/21 03:30:30;;;;;;;6.37;4.97;;;19.30;81.90;;;;;;4994469;28;20594;-77
2023/05/21 03:33:24;;;;;;;6.50;5.03;;;19.30;82.00;;;;;;4993336;28;20982;-77
2023/05/21 03:35:53;;;;;;;5.80;4.97;;;19.30;82.10;;;;;;4978094;28;20559;-76
2023/05/21 03:38:22;;;;;;;5.70;5.20;;;19.30;82.20;;;;;;4978166;28;20435;-77
2023/05/21 03:40:52;;;;;;;5.80;5.30;;;19.30;82.20;;;;;;4994055;28;20407;-77
2023/05/21 03:43:18;;;;;;;5.43;4.93;;;19.30;82.20;;;;;;4993747;28;20834;-77
2023/05/21 03:45:47;;;;;;;5.30;4.80;;;19.30;82.20;;;;;;4977761;28;20444;-77
2023/05/21 03:48:34;;;;;;;5.53;5.03;;;19.30;82.30;;;;;;4993633;28;20795;-77
2023/05/21 03:51:01;;;;;;;5.13;4.67;;;19.20;82.30;;;;;;4961881;28;20954;-77
2023/05/21 03:53:27;;;;;;;5.80;5.20;;;19.20;82.40;;;;;;4994581;28;20466;-77
2023/05/21 03:55:55;;;;;;;5.17;4.73;;;19.20;82.40;;;;;;4977702;28;20441;-77
2023/05/21 03:58:26;;;;;;;5.97;5.30;;;19.20;82.40;;;;;;4993390;28;20473;-77
2023/05/21 04:00:55;;;;;;;5.00;4.50;;;19.20;82.40;;;;;;4977480;28;20915;-77
2023/05/21 04:03:23;;;;;;;6.53;4.90;;;19.20;82.40;;;;;;4992376;28;20442;-77
2023/05/21 04:05:52;;;;;;;5.20;4.80;;;19.20;82.40;;;;;;4977421;28;20434;-78
2023/05/21 04:08:21;;;;;;;5.13;4.73;;;19.20;82.40;;;;;;4961659;28;20857;-77
2023/05/21 04:10:50;;;;;;;5.73;4.47;;;19.20;82.50;;;;;;4977184;28;20459;-77
2023/05/21 04:13:16;;;;;;;5.27;4.80;;;19.20;82.60;;;;;;4976613;28;20450;-76
2023/05/21 04:15:45;;;;;;;5.37;4.97;;;19.10;82.60;;;;;;4976941;28;20462;-76
2023/05/21 04:18:21;;;;;;;5.60;5.00;;;19.10;82.60;;;;;;4993202;28;20413;-77
2023/05/21 04:20:52;;;;;;;6.37;5.10;;;19.10;82.60;;;;;;5004469;22;20434;-80
2023/05/21 04:23:23;;;;;;;5.03;4.60;;;19.10;82.60;;;;;;4982301;28;20799;-81
2023/05/21 04:25:51;;;;;;;5.60;5.00;;;19.10;82.70;;;;;;5014600;28;20456;-81
2023/05/21 04:28:19;;;;;;;5.53;4.60;;;19.10;82.70;;;;;;4998697;28;20505;-81
2023/05/21 04:30:52;;;;;;;5.60;4.80;;;19.10;82.70;;;;;;5014573;28;20472;-81
2023/05/21 04:33:21;;;;;;;5.47;4.97;;;19.10;82.70;;;;;;5014573;28;20441;-81
2023/05/21 04:35:50;;;;;;;5.03;4.53;;;19.10;82.80;;;;;;4998366;28;20441;-81
2023/05/21 04:38:20;;;;;;;5.53;5.00;;;19.10;83.60;;;;;;5014513;28;20433;-81
2023/05/21 04:40:51;;;;;;;5.33;4.80;;;19.00;82.70;;;;;;5014648;28;20424;-81
2023/05/21 04:43:28;;;;;;;4.80;4.33;;;19.00;82.80;;;;;;4981840;28;20516;-81
2023/05/21 04:45:56;;;;;;;5.23;4.73;;;19.00;82.80;;;;;;5014379;28;20417;-81
2023/05/21 04:48:25;;;;;;;6.00;5.40;;;19.00;83.70;;;;;;5014187;28;20464;-81
2023/05/21 04:50:56;;;;;;;5.23;4.67;;;19.00;83.10;;;;;;5014479;28;20473;-81
2023/05/21 04:53:22;;;;;;;6.30;4.83;;;19.00;83.00;;;;;;5011223;28;20436;-81
2023/05/21 04:55:49;;;;;;;5.30;4.80;;;19.00;83.00;;;;;;5018069;28;20444;-82
2023/05/21 04:58:17;;;;;;;5.43;4.93;;;19.00;83.00;;;;;;4998426;28;20440;-82
2023/05/21 05:00:49;;;;;;;5.17;4.77;;;19.00;82.90;;;;;;4998412;28;20425;-82
2023/05/21 05:03:17;;;;;;;5.70;4.77;;;19.00;83.00;;;;;;4981875;28;20440;-81
2023/05/21 05:05:43;;;;;;;4.50;4.10;;;19.00;83.20;;;;;;4998109;28;20439;-82
2023/05/21 05:08:09;;;;;;;6.13;4.80;;;19.00;83.20;;;;;;4997671;28;20476;-81
2023/05/21 05:10:35;;;;;;;5.30;4.80;;;19.00;83.40;;;;;;4997887;28;20227;-81
2023/05/21 05:13:01;;;;;;;5.60;5.10;;;18.90;83.20;;;;;;4997813;28;20547;-81
2023/05/21 05:15:31;;;;;;;6.53;4.90;;;18.90;83.30;;;;;;5000452;28;20178;-82
2023/05/21 05:17:57;;;;;;;7.00;4.80;;;18.90;83.30;;;;;;4985622;28;20425;-81
2023/05/21 05:20:27;;;;;;;4.70;4.30;;;18.90;83.40;;;;;;5002042;28;20438;-81
2023/05/21 05:22:54;;;;;;;4.73;4.33;;;18.90;83.40;;;;;;5018292;28;20431;-81
2023/05/21 05:25:20;;;;;;;5.23;4.73;;;18.90;83.40;;;;;;5018725;28;20460;-81
2023/05/21 05:27:48;;;;;;;5.03;4.53;;;18.90;83.60;;;;;;5018049;28;20289;-81
2023/05/21 05:30:14;;;;;;;4.67;4.27;;;18.90;83.60;;;;;;5018692;28;20588;-81
2023/05/21 05:32:42;;;;;;;4.97;4.57;;;18.90;83.60;;;;;;5001473;28;20435;-81
2023/05/21 05:35:08;;;;;;;5.47;4.90;;;18.90;83.80;;;;;;5017738;28;20775;-81
2023/05/21 05:37:37;;;;;;;4.87;4.47;;;18.90;83.80;;;;;;5001736;28;20424;-81
2023/05/21 05:40:07;;;;;;;5.73;5.17;;;18.80;83.70;;;;;;5017931;28;20417;-81
2023/05/21 05:42:33;;;;;;;5.00;4.50;;;18.90;83.90;;;;;;5017664;28;20778;-81
2023/05/21 05:45:03;;;;;;;5.30;4.77;;;18.90;84.00;;;;;;5017616;28;20511;-81
2023/05/21 05:47:30;;;;;;;5.17;4.67;;;18.80;83.70;;;;;;5001286;28;20862;-81
2023/05/21 05:49:56;;;;;;;6.00;5.47;;;18.90;83.90;;;;;;5017616;28;20508;-81
2023/05/21 05:52:24;;;;;;;5.87;5.33;;;18.80;83.90;;;;;;5017391;28;20420;-82
2023/05/21 05:54:50;;;;;;;5.10;4.63;;;18.80;83.90;;;;;;5001318;28;20459;-80
2023/05/21 05:57:16;;;;;;;7.53;5.70;;;18.80;84.00;;;;;;5017416;28;20477;-81
2023/05/21 05:59:44;;;;;;;4.57;4.17;;;18.80;84.10;;;;;;5017314;28;20449;-82
2023/05/21 06:02:13;;;;;;;5.97;5.30;;;18.80;84.30;;;;;;5001137;28;20445;-82
2023/05/21 06:04:41;;;;;;;5.77;5.27;;;18.80;84.30;;;;;;5017503;28;20518;-81
2023/05/21 06:07:10;;;;;;;4.80;4.40;;;18.80;84.30;;;;;;5017152;28;20464;-81
2023/05/21 06:09:37;;;;;;;6.07;5.53;;;18.80;84.20;;;;;;5017178;28;20502;-81
2023/05/21 06:12:06;;;;;;;6.00;5.20;;;18.80;84.40;;;;;;5017261;28;20405;-81
2023/05/21 06:14:32;;;;;;;5.63;4.73;;;18.80;84.40;;;;;;5017262;28;20420;-82
2023/05/21 06:16:58;;;;;;;5.40;4.90;;;18.80;84.60;;;;;;5017316;28;20438;-82
2023/05/21 06:19:27;;;;;;;5.40;4.60;;;18.70;84.50;;;;;;5001056;28;20517;-82
2023/05/21 06:21:52;;;;;;;5.57;5.07;;;18.80;84.70;;;;;;5017941;28;20548;-81
2023/05/21 06:24:18;;;;;;;5.60;5.10;;;18.80;84.70;;;;;;5036782;28;20554;-81
2023/05/21 06:26:44;;;;;;;4.67;4.27;;;18.70;84.50;;;;;;5019067;28;20213;-82
2023/05/21 06:29:11;;;;;;;5.40;4.90;;;18.70;84.40;;;;;;5020296;28;20176;-82
2023/05/21 06:31:42;;;;;;;4.97;4.57;;;18.70;84.40;;;;;;5036621;28;20434;-82
2023/05/21 06:34:09;;;;;;;6.23;5.63;;;18.70;84.50;;;;;;5036535;28;20426;-81
2023/05/21 06:36:37;;;;;;;5.43;4.93;;;18.70;84.70;;;;;;5036425;28;20430;-81
2023/05/21 06:39:03;;;;;;;5.40;4.60;;;18.70;84.80;;;;;;5003668;28;20447;-81
2023/05/21 06:41:32;;;;;;;6.00;5.40;;;18.70;84.90;;;;;;5019827;28;20905;-81
2023/05/21 06:44:02;;;;;;;6.07;5.30;;;18.70;84.90;;;;;;5020252;28;20465;-81
2023/05/21 06:47:01;;;;;;;6.10;5.50;;;18.70;85.00;;;;;;5019816;28;20494;-81
2023/05/21 06:49:27;;;;;;;5.60;5.10;;;18.70;85.00;;;;;;5036117;28;20418;-81
2023/05/21 06:51:56;;;;;;;5.77;5.20;;;18.70;85.10;;;;;;5019918;28;20412;-81
2023/05/21 06:54:22;;;;;;;8.00;6.50;;;18.70;85.20;;;;;;5014874;28;20440;-82
2023/05/21 06:56:49;;;;;;;5.60;5.10;;;18.70;85.10;;;;;;4984160;28;20443;-82
2023/05/21 06:59:17;;;;;;;6.20;5.60;;;18.70;85.10;;;;;;5000289;28;20505;-82
2023/05/21 07:01:43;;;;;;;6.70;6.10;;;18.70;85.20;;;;;;5016162;28;20885;-81
2023/05/21 07:04:12;;;;;;;5.77;5.27;;;18.70;85.10;;;;;;5016344;28;20416;-82
2023/05/21 07:06:39;;;;;;;6.23;5.60;;;18.70;85.00;;;;;;4999852;28;20600;-81
2023/05/21 07:09:05;;;;;;;7.20;6.50;;;18.70;85.10;;;;;;5016253;28;20507;-82
2023/05/21 07:11:34;;;;;;;6.77;6.10;;;18.70;85.20;;;;;;5000035;28;20841;-81
2023/05/21 07:14:02;;;;;;;6.53;5.93;;;18.70;85.20;;;;;;4999882;28;20432;-81
2023/05/21 07:16:31;;;;;;;6.50;5.90;;;18.70;85.30;;;;;;5015902;28;20807;-82
2023/05/21 07:19:01;;;;;;;6.47;5.87;;;18.70;85.30;;;;;;5016207;28;20790;-81
2023/05/21 07:21:27;;;;;;;7.40;5.83;;;18.70;85.50;;;;;;4983610;28;20449;-82
2023/05/21 07:23:56;;;;;;;9.03;5.70;;;18.70;85.40;;;;;;5005579;28;20460;-82
2023/05/21 07:26:23;;;;;;;6.27;5.67;;;18.80;85.50;;;;;;4999727;28;20428;-84
2023/05/21 07:28:49;;;;;;;6.97;6.33;;;18.80;85.60;;;;;;4999714;28;20754;-82
2023/05/21 07:31:17;;;;;;;6.87;6.27;;;18.80;86.20;;;;;;4999322;28;20502;-82
2023/05/21 07:33:52;;;;;;;6.57;5.87;;;18.80;86.40;;;;;;5000298;28;20800;-81
2023/05/21 07:36:21;;;;;;;7.60;6.80;;;18.80;86.20;;;;;;5015776;28;20444;-82
2023/05/21 07:38:49;;;;;;;7.43;6.60;;;18.80;86.20;;;;;;4983029;28;20478;-82
2023/05/21 07:41:16;;;;;;;6.20;5.60;;;18.80;86.30;;;;;;4999277;28;20273;-82
2023/05/21 07:43:42;;;;;;;6.47;5.87;;;18.80;86.60;;;;;;4999269;28;20422;-82
2023/05/21 07:46:09;;;;;;;7.00;6.30;;;18.80;86.50;;;;;;5015473;28;20743;-82
2023/05/21 07:48:37;;;;;;;6.50;5.87;;;18.80;86.60;;;;;;4999399;28;20765;-82
2023/05/21 07:51:04;;;;;;;6.47;5.87;;;18.80;86.50;;;;;;5015354;28;20456;-81
2023/05/21 07:53:37;;;;;;;8.30;6.17;;;18.80;86.20;;;;;;5015407;28;20444;-82
2023/05/21 07:56:09;;;;;;;7.40;6.50;;;18.90;86.00;;;;;;4996031;28;20422;-82
2023/05/21 07:58:35;;;;;;;7.50;6.70;;;18.90;86.00;;;;;;4979620;28;20555;-82
2023/05/21 08:01:01;;;;;;;7.00;6.00;;;18.90;86.40;;;;;;4995577;28;20432;-81
2023/05/21 08:03:30;;;;;;;8.60;7.80;;;18.90;86.70;;;;;;4995791;28;20861;-82
2023/05/21 08:05:59;;;;;;;6.80;6.20;;;18.90;86.70;;;;;;4979739;28;20414;-82
2023/05/21 08:08:29;;;;;;;6.97;6.37;;;19.00;86.50;;;;;;4979591;28;20461;-82
2023/05/21 08:10:57;;;;;;;6.97;6.37;;;19.00;86.50;;;;;;4963496;28;20897;-81
2023/05/21 08:13:25;;;;;;;9.40;6.30;;;19.00;86.30;;;;;;4979531;28;20414;-81
2023/05/21 08:15:53;;;;;;;7.33;6.63;;;19.00;86.30;;;;;;4979470;28;20461;-81
2023/05/21 08:18:22;;;;;;;8.20;7.00;;;19.00;86.50;;;;;;4995274;28;20843;-82
2023/05/21 08:20:50;;;;;;;7.20;6.47;;;19.00;86.80;;;;;;4979425;28;20445;-82
2023/05/21 08:23:18;;;;;;;7.30;6.70;;;19.00;87.10;;;;;;5020735;28;20419;-82
2023/05/21 08:25:53;;;;;;;7.27;6.57;;;19.00;86.90;;;;;;5002271;28;20424;-82
2023/05/21 08:28:21;;;;;;;9.90;7.43;;;19.00;87.30;;;;;;4998309;28;20464;-82
2023/05/21 08:30:52;;;;;;;7.40;6.70;;;19.00;87.30;;;;;;5014814;28;20401;-82
2023/05/21 08:33:21;;;;;;;7.93;6.60;;;19.10;87.40;;;;;;4998769;28;20519;-82
2023/05/21 08:35:49;;;;;;;7.30;6.60;;;19.10;87.20;;;;;;5014484;28;20450;-82
2023/05/21 08:38:41;;;;;;;7.90;7.20;;;19.10;87.30;;;;;;5000878;28;20762;-82
2023/05/21 08:41:12;;;;;;;7.50;6.60;;;19.10;87.20;;;;;;5014625;28;20814;-81
2023/05/21 08:43:41;;;;;;;8.30;7.50;;;19.10;87.20;;;;;;5014371;28;20498;-81
2023/05/21 08:46:08;;;;;;;8.63;7.83;;;19.10;87.50;;;;;;4982365;28;20753;-81
2023/05/21 08:48:37;;;;;;;8.13;7.43;;;19.20;87.60;;;;;;5014236;28;20428;-81
2023/05/21 08:51:04;;;;;;;8.27;7.47;;;19.20;87.60;;;;;;4997828;28;20974;-82
2023/05/21 08:53:34;;;;;;;7.73;7.03;;;19.20;87.80;;;;;;5016679;28;20714;-82
2023/05/21 08:56:03;;;;;;;7.93;7.23;;;19.20;87.90;;;;;;5014255;28;20432;-81
2023/05/21 08:58:45;;;;;;;9.83;8.20;;;19.30;88.20;;;;;;4999823;28;20408;-82
2023/05/21 09:01:13;;;;;;;8.23;7.43;;;19.30;88.20;;;;;;4982215;28;20812;-82
2023/05/21 09:03:44;;;;;;;8.60;7.70;;;19.30;88.10;;;;;;5014303;28;20499;-82
2023/05/21 09:06:14;;;;;;;8.60;7.80;;;19.30;88.00;;;;;;4981373;28;20433;-83
2023/05/21 09:08:56;;;;;;;9.80;8.10;;;19.30;88.30;;;;;;5014283;28;20402;-83
2023/05/21 09:11:28;;;;;;;9.13;8.13;;;19.40;88.50;;;;;;4997888;28;20858;-84
2023/05/21 09:14:00;;;;;;;9.03;8.13;;;19.40;88.50;;;;;;5014119;28;20447;-82
2023/05/21 09:16:34;;;;;;;8.53;7.73;;;19.40;88.80;;;;;;4982880;28;20909;-82
2023/05/21 09:19:03;;;;;;;9.40;8.50;;;19.40;88.80;;;;;;4997827;28;20457;-83
2023/05/21 09:21:32;;;;;;;9.03;8.13;;;19.50;89.00;;;;;;5014031;28;20584;-83
2023/05/21 09:24:21;;;;;;;9.70;8.30;;;19.50;89.10;;;;;;5013560;28;20502;-83
2023/05/21 09:26:51;;;;;;;9.27;8.37;;;19.60;89.30;;;;;;4997661;28;20475;-83
2023/05/21 09:29:20;;;;;;;9.57;8.53;;;19.60;89.20;;;;;;4981761;28;20417;-83
2023/05/21 09:31:46;;;;;;;9.40;8.50;;;19.60;89.00;;;;;;5014000;28;20406;-83
2023/05/21 09:34:15;;;;;;;9.77;8.47;;;19.60;89.00;;;;;;4998341;28;20507;-82
2023/05/21 09:36:44;;;;;;;9.67;8.77;;;19.70;89.20;;;;;;4997858;28;20424;-82
2023/05/21 09:39:15;;;;;;;8.70;8.00;;;19.70;89.30;;;;;;5014079;28;20898;-83
2023/05/21 09:41:41;;;;;;;12.07;9.63;;;19.70;89.20;;;;;;4981609;28;20480;-82
2023/05/21 09:44:12;;;;;;;10.17;9.13;;;19.70;89.20;;;;;;4997665;28;20432;-82
2023/05/21 09:46:42;;;;;;;10.57;9.57;;;19.80;89.30;;;;;;5013807;28;20465;-83
2023/05/21 09:49:25;;;;;;;9.50;8.60;;;19.80;89.60;;;;;;4997944;28;20913;-83
2023/05/21 09:52:00;;;;;;;11.10;9.50;;;19.80;89.80;;;;;;4981594;28;20730;-85
2023/05/21 09:54:33;;;;;;;9.43;8.53;;;19.80;89.60;;;;;;4997724;28;20475;-82
2023/05/21 09:57:01;;;;;;;10.30;9.30;;;19.90;89.80;;;;;;5013974;28;20429;-82
2023/05/21 09:59:40;;;;;;;10.20;9.20;;;19.90;89.70;;;;;;5013923;28;20437;-83
2023/05/21 10:02:25;;;;;;;11.07;9.20;;;19.90;89.90;;;;;;4984871;28;20429;-85
2023/05/21 10:04:53;;;;;;;9.73;8.73;;;19.90;89.80;;;;;;5017506;28;20923;-84
2023/05/21 10:07:30;;;;;;;10.07;9.07;;;19.90;89.90;;;;;;5017526;28;20553;-82
2023/05/21 10:09:59;;;;;;;11.23;9.70;;;20.00;90.00;;;;;;5017176;28;20442;-82
2023/05/21 10:12:29;;;;;;;11.10;10.00;;;20.00;90.00;;;;;;5017206;28;20425;-84
2023/05/21 10:15:03;;;;;;;10.20;8.63;;;20.00;90.00;;;;;;5001249;28;20722;-83
2023/05/21 10:17:33;;;;;;;10.97;9.87;;;20.10;90.10;;;;;;5001309;28;20441;-82
2023/05/21 10:20:00;;;;;;;10.73;9.63;;;20.10;90.00;;;;;;5017181;28;20500;-83
2023/05/21 10:22:28;;;;;;;13.07;10.50;;;20.10;90.00;;;;;;4988050;28;20552;-83
2023/05/21 10:24:56;;;;;;;10.57;9.50;;;20.10;89.90;;;;;;5036780;28;20417;-83
2023/05/21 10:27:22;;;;;;;10.43;9.30;;;20.20;90.00;;;;;;5019882;28;20488;-83
2023/05/21 10:29:49;;;;;;;10.60;9.60;;;20.20;90.10;;;;;;5036731;28;20432;-82
2023/05/21 10:32:15;;;;;;;11.57;10.00;;;20.20;90.00;;;;;;5036515;28;20460;-82
2023/05/21 10:34:43;;;;;;;12.40;11.17;;;20.20;89.90;;;;;;5037468;28;20688;-83
2023/05/21 10:37:11;;;;;;;12.00;10.80;;;20.30;90.00;;;;;;5020095;28;20496;-83
2023/05/21 10:39:38;;;;;;;12.40;10.67;;;20.30;90.00;;;;;;5020115;28;20841;-82
2023/05/21 10:42:36;;;;;;;12.60;11.40;;;20.30;90.00;;;;;;5020177;28;20431;-82
2023/05/21 10:45:42;;;;;;;12.17;10.93;;;20.40;90.00;;;;;;5004833;28;20755;-83
2023/05/21 10:48:26;;;;;;;11.80;10.57;;;20.40;89.90;;;;;;4968741;28;20485;-82
2023/05/21 10:51:19;;;;;;;11.67;10.57;;;20.40;90.00;;;;;;5036035;28;20455;-84
2023/05/21 10:53:58;;;;;;;12.27;11.07;;;20.40;90.00;;;;;;5019670;28;20504;-85
2023/05/21 10:56:31;;;;;;;11.63;10.53;;;20.50;90.10;;;;;;5036468;28;20528;-84
2023/05/21 10:59:03;;;;;;;16.07;11.67;;;20.50;90.10;;;;;;5036993;28;20473;-83
2023/05/21 11:01:36;;;;;;;12.40;11.20;;;20.50;90.20;;;;;;5036197;28;20449;-83
2023/05/21 11:04:04;;;;;;;12.60;11.27;;;20.60;90.20;;;;;;5003262;28;20492;-83
2023/05/21 11:06:35;;;;;;;12.83;11.50;;;20.60;90.10;;;;;;5036226;28;20559;-83
2023/05/21 11:09:13;;;;;;;12.73;11.30;;;20.60;90.00;;;;;;5036302;28;20393;-84
2023/05/21 11:11:41;;;;;;;12.40;11.23;;;20.60;90.00;;;;;;5019224;28;20413;-82
2023/05/21 11:14:38;;;;;;;12.43;11.20;;;20.60;90.00;;;;;;5002972;28;20454;-83
2023/05/21 11:17:35;;;;;;;13.77;12.20;;;20.70;90.00;;;;;;5035789;28;20510;-82
2023/05/21 11:20:09;;;;;;;13.00;11.70;;;20.70;90.00;;;;;;5019238;28;20525;-82
2023/05/21 11:22:37;;;;;;;13.17;11.87;;;20.70;90.00;;;;;;5035774;28;20436;-83
2023/05/21 11:25:04;;;;;;;13.20;11.53;;;20.70;90.00;;;;;;5003198;28;20461;-82
2023/05/21 11:27:32;;;;;;;13.07;11.83;;;20.80;90.10;;;;;;5035606;28;20556;-83
2023/05/21 11:30:08;;;;;;;13.63;12.23;;;20.80;90.10;;;;;;5035845;28;20467;-83
2023/05/21 11:33:00;;;;;;;15.87;12.27;;;20.80;90.00;;;;;;5019095;28;20438;-84
2023/05/21 11:35:26;;;;;;;13.27;11.97;;;20.80;90.10;;;;;;5002895;28;20489;-84
2023/05/21 11:37:53;;;;;;;14.00;12.50;;;20.90;90.20;;;;;;5035606;28;20413;-84
2023/05/21 11:40:24;;;;;;;12.77;11.60;;;20.90;90.20;;;;;;5035638;28;20523;-83
2023/05/21 11:42:55;;;;;;;13.27;11.97;;;20.90;90.20;;;;;;5019081;28;20431;-83
2023/05/21 11:45:28;;;;;;;12.73;11.57;;;21.00;90.20;;;;;;5035433;28;20445;-83
2023/05/21 11:47:57;;;;;;;14.10;12.70;;;21.00;90.20;;;;;;5035292;28;20479;-82
2023/05/21 11:50:24;;;;;;;13.80;12.33;;;21.00;90.20;;;;;;5035514;28;20465;-84
2023/05/21 11:52:50;;;;;;;13.83;12.37;;;21.00;90.10;;;;;;5018809;28;20451;-83
2023/05/21 11:55:21;;;;;;;13.13;11.83;;;21.10;90.10;;;;;;5035120;28;20422;-83
2023/05/21 11:57:56;;;;;;;13.73;12.33;;;21.10;90.10;;;;;;5035678;28;20418;-83
2023/05/21 12:00:23;;;;;;;14.70;11.40;;;21.10;90.10;;;;;;5002537;28;20554;-84
2023/05/21 12:02:52;;;;;;;14.17;12.70;;;21.20;90.20;;;;;;5036079;28;20458;-84
2023/05/21 12:05:18;;;;;;;12.33;11.00;;;21.20;90.60;;;;;;5002388;28;20451;-85
2023/05/21 12:07:48;;;;;;;13.90;12.57;;;21.20;90.20;;;;;;5034974;28;20561;-83
2023/05/21 12:10:21;;;;;;;13.87;12.47;;;21.20;90.20;;;;;;5018527;28;20458;-84
2023/05/21 12:12:49;;;;;;;12.30;11.13;;;21.30;90.30;;;;;;5018616;28;20494;-83
2023/05/21 12:15:18;;;;;;;13.53;12.23;;;21.30;90.30;;;;;;5034856;28;20474;-84
2023/05/21 12:17:48;;;;;;;13.00;11.50;;;21.30;90.30;;;;;;5002123;28;20430;-84
2023/05/21 12:20:15;;;;;;;13.63;12.37;;;21.40;90.30;;;;;;5001826;28;20512;-83
2023/05/21 12:22:42;;;;;;;15.33;11.67;;;21.40;90.40;;;;;;5001874;28;20503;-84
2023/05/21 12:25:08;;;;;;;14.60;11.93;;;21.50;90.50;;;;;;5034705;28;20430;-83
2023/05/21 12:27:37;;;;;;;14.07;12.67;;;21.50;90.40;;;;;;5002001;28;21022;-83
2023/05/21 12:33:03;;;;;;;12.60;11.37;;;21.50;90.40;;;;;;5035366;28;20479;-92
2023/05/21 12:35:30;;;;;;;13.53;12.07;;;21.50;90.30;;;;;;5002927;28;20449;-93
2023/05/21 12:38:03;;;;;;;13.70;11.67;;;21.60;90.30;;;;;;5003654;28;20412;-92
2023/05/21 12:40:39;;;;;;;14.43;12.70;;;21.60;90.40;;;;;;5019573;28;20435;-94
2023/05/21 12:43:09;;;;;;;12.60;11.40;;;21.70;90.40;;;;;;5019022;28;20432;-94
2023/05/21 12:45:38;;;;;;;12.73;11.43;;;21.70;90.50;;;;;;5003173;28;20472;-94
2023/05/21 12:48:07;;;;;;;14.60;13.10;;;21.70;90.50;;;;;;5002543;28;20481;-94
2023/05/21 12:52:05;;;;;;;13.50;12.20;;;21.70;90.50;;;;;;4966775;28;20903;-92
2023/05/21 12:54:55;;;;;;;13.43;12.13;;;21.80;90.60;;;;;;4927915;28;20541;-93
2023/05/21 12:57:23;;;;;;;13.67;12.37;;;21.90;90.50;;;;;;4927951;28;20445;-90
2023/05/21 13:00:27;;;;;;;13.20;12.03;;;21.90;90.50;;;;;;4943639;28;20461;-93
2023/05/21 13:03:11;;;;;;;14.33;12.87;;;21.90;90.90;;;;;;4902313;29;20466;-94